Time;durP1;ratioP1;P1;durP2;ratioP2;P2;SDS_P1;SDS_P2;PMS_P1;PMS_P2;Temp;Humidity;BMP_temperature;BMP_pressure;BME280_temperature;BME280_humidity;BME280_pressure;Samples;Min_cycle;Max_cycle;Signal;HPM_P1;HPM_P2
2021/12/28 00:02:17;;;;;;;29.52;4.82;;;;;;;;;;5044092;28;20037;-77
2021/12/28 00:04:43;;;;;;;25.88;4.13;;;;;;;;;;5055234;28;20044;-79
2021/12/28 00:07:08;;;;;;;22.08;3.92;;;;;;;;;;5057794;28;20051;-79
2021/12/28 00:09:33;;;;;;;23.27;3.53;;;;;;;;;;5063501;28;20447;-79
2021/12/28 00:11:59;;;;;;;13.70;3.13;;;;;;;;;;5059891;28;20131;-80
2021/12/28 00:14:33;;;;;;;24.73;3.50;;;;;;;;;;5045938;28;20091;-79
2021/12/28 00:19:42;;;;;;;32.65;4.07;;;;;;;;;;5064476;28;20067;-79
2021/12/28 00:22:08;;;;;;;16.70;3.67;;;;;;;;;;5068319;28;20474;-80
2021/12/28 00:24:35;;;;;;;24.73;4.50;;;;;;;;;;5057546;28;20020;-79
2021/12/28 00:27:01;;;;;;;30.20;4.85;;;;;;;;;;5069137;28;20040;-79
2021/12/28 00:29:26;;;;;;;27.42;3.80;;;;;;;;;;5066254;28;20071;-80
2021/12/28 00:31:52;;;;;;;16.92;3.65;;;;;;;;;;5066310;28;20068;-78
2021/12/28 00:34:17;;;;;;;24.48;3.92;;;;;;;;;;5037933;28;20053;-79
2021/12/28 00:36:42;;;;;;;14.73;2.67;;;;;;;;;;5058720;28;20024;-80
2021/12/28 00:39:08;;;;;;;18.33;2.47;;;;;;;;;;5057183;28;20043;-79
2021/12/28 00:41:33;;;;;;;10.82;2.20;;;;;;;;;;5057705;28;20082;-80
2021/12/28 00:43:58;;;;;;;11.93;2.35;;;;;;;;;;5059766;28;20116;-80
2021/12/28 00:46:24;;;;;;;13.10;2.85;;;;;;;;;;5057263;28;20071;-79
2021/12/28 00:48:49;;;;;;;12.30;2.60;;;;;;;;;;5049303;28;20148;-79
2021/12/28 00:51:15;;;;;;;11.27;2.38;;;;;;;;;;5042554;28;20119;-80
2021/12/28 00:53:40;;;;;;;18.20;3.03;;;;;;;;;;5047812;28;20076;-80
2021/12/28 00:56:05;;;;;;;17.25;2.33;;;;;;;;;;5035449;28;20041;-80
2021/12/28 00:58:32;;;;;;;7.45;2.38;;;;;;;;;;5036527;28;20037;-79
2021/12/28 01:00:57;;;;;;;9.50;2.22;;;;;;;;;;5026112;28;20080;-78
2021/12/28 01:03:23;;;;;;;13.75;2.90;;;;;;;;;;5048023;28;20029;-79
2021/12/28 01:05:49;;;;;;;10.88;2.20;;;;;;;;;;5038740;28;20107;-79
2021/12/28 01:08:15;;;;;;;12.48;3.28;;;;;;;;;;5036850;28;20051;-80
2021/12/28 01:10:49;;;;;;;8.32;2.33;;;;;;;;;;5033657;28;20045;-80
2021/12/28 01:13:14;;;;;;;;;;;;;;;;;;5024316;28;20037;-80
2021/12/28 01:15:40;;;;;;;8.23;1.75;;;;;;;;;;5037373;28;20443;-80
2021/12/28 01:18:06;;;;;;;12.25;2.95;;;;;;;;;;5041709;28;20091;-79
2021/12/28 01:20:32;;;;;;;12.05;2.45;;;;;;;;;;5045258;28;20088;-80
2021/12/28 01:22:58;;;;;;;14.48;2.58;;;;;;;;;;5038410;28;20041;-79
2021/12/28 01:25:24;;;;;;;11.45;2.60;;;;;;;;;;5032919;28;20041;-80
2021/12/28 01:27:50;;;;;;;6.78;2.20;;;;;;;;;;5038559;28;20640;-80
2021/12/28 01:30:19;;;;;;;11.40;2.88;;;;;;;;;;5023838;28;20037;-79
2021/12/28 01:32:45;;;;;;;9.88;2.90;;;;;;;;;;5037795;28;20041;-80
2021/12/28 01:35:13;;;;;;;14.00;2.95;;;;;;;;;;5040075;28;20455;-79
2021/12/28 01:37:39;;;;;;;14.55;2.63;;;;;;;;;;5049957;28;20611;-80
2021/12/28 01:40:08;;;;;;;12.95;2.67;;;;;;;;;;5026764;28;20028;-80
2021/12/28 01:42:33;;;;;;;17.85;3.05;;;;;;;;;;5038879;28;20511;-79
2021/12/28 01:44:59;;;;;;;11.77;2.65;;;;;;;;;;5040009;28;20554;-79
2021/12/28 01:47:24;;;;;;;10.45;2.83;;;;;;;;;;5036259;28;20618;-79
2021/12/28 01:49:50;;;;;;;10.57;2.53;;;;;;;;;;5049366;28;20043;-80
2021/12/28 01:52:15;;;;;;;12.30;2.88;;;;;;;;;;5046931;28;20078;-80
2021/12/28 01:54:42;;;;;;;10.88;2.80;;;;;;;;;;5022431;28;20037;-79
2021/12/28 01:57:07;;;;;;;6.55;1.65;;;;;;;;;;5038731;28;20033;-80
2021/12/28 01:59:32;;;;;;;12.38;2.72;;;;;;;;;;5041524;28;20037;-79
2021/12/28 02:01:58;;;;;;;13.13;2.60;;;;;;;;;;5036795;28;20052;-79
2021/12/28 02:04:26;;;;;;;11.10;2.55;;;;;;;;;;5044752;28;20037;-80
2021/12/28 02:06:54;;;;;;;14.40;2.33;;;;;;;;;;5041373;28;20056;-80
2021/12/28 02:09:20;;;;;;;12.05;2.30;;;;;;;;;;5047039;28;20044;-80
2021/12/28 02:11:45;;;;;;;11.98;2.20;;;;;;;;;;5043523;28;20099;-80
2021/12/28 02:14:11;;;;;;;8.50;2.15;;;;;;;;;;5017697;28;20041;-80
2021/12/28 02:16:40;;;;;;;10.57;2.50;;;;;;;;;;5028592;28;20043;-80
2021/12/28 02:19:06;;;;;;;11.57;2.28;;;;;;;;;;5039885;28;20022;-80
2021/12/28 02:21:32;;;;;;;8.77;1.52;;;;;;;;;;5003902;28;20036;-79
2021/12/28 02:24:06;;;;;;;11.98;2.28;;;;;;;;;;5010275;28;20042;-80
2021/12/28 02:26:32;;;;;;;4.75;1.20;;;;;;;;;;5019062;28;20065;-79
2021/12/28 02:28:57;;;;;;;9.30;1.30;;;;;;;;;;5033281;28;20080;-79
2021/12/28 02:31:23;;;;;;;9.70;2.25;;;;;;;;;;5020561;28;20057;-79
2021/12/28 02:33:49;;;;;;;8.75;2.45;;;;;;;;;;5027340;28;20487;-79
2021/12/28 02:36:15;;;;;;;11.63;2.08;;;;;;;;;;5021211;28;20048;-79
2021/12/28 02:38:42;;;;;;;8.70;2.22;;;;;;;;;;5019949;28;20038;-80
2021/12/28 02:41:09;;;;;;;15.55;2.97;;;;;;;;;;5024715;28;20049;-80
2021/12/28 02:43:35;;;;;;;9.90;1.85;;;;;;;;;;5020268;28;20087;-80
2021/12/28 02:46:03;;;;;;;6.47;1.65;;;;;;;;;;4999619;28;20088;-80
2021/12/28 02:48:29;;;;;;;12.30;2.28;;;;;;;;;;5036459;28;20041;-80
2021/12/28 02:51:23;;;;;;;10.38;2.00;;;;;;;;;;5061276;28;20040;-80
2021/12/28 02:53:49;;;;;;;7.05;1.70;;;;;;;;;;5035844;28;20053;-80
2021/12/28 02:56:16;;;;;;;5.20;1.52;;;;;;;;;;5038267;28;20071;-80
2021/12/28 02:58:45;;;;;;;3.40;1.40;;;;;;;;;;5052445;28;20522;-81
2021/12/28 03:01:21;;;;;;;6.20;1.50;;;;;;;;;;5058538;28;20028;-80
2021/12/28 03:03:50;;;;;;;4.70;1.60;;;;;;;;;;5038781;28;20043;-79
2021/12/28 03:06:18;;;;;;;8.70;1.98;;;;;;;;;;5039441;28;20045;-80
2021/12/28 03:08:48;;;;;;;6.75;1.63;;;;;;;;;;5044912;28;20047;-80
2021/12/28 03:11:14;;;;;;;9.70;2.10;;;;;;;;;;5049391;28;20040;-81
2021/12/28 03:13:42;;;;;;;8.40;1.90;;;;;;;;;;5053681;28;20044;-79
2021/12/28 03:16:09;;;;;;;7.13;1.75;;;;;;;;;;5044507;28;20024;-80
2021/12/28 03:18:35;;;;;;;6.47;1.40;;;;;;;;;;5043983;28;20036;-80
2021/12/28 03:21:02;;;;;;;9.80;1.50;;;;;;;;;;5034082;28;20037;-80
2021/12/28 03:23:28;;;;;;;9.23;1.80;;;;;;;;;;5040229;28;20044;-80
2021/12/28 03:25:55;;;;;;;6.57;1.65;;;;;;;;;;5045508;28;20040;-80
2021/12/28 03:28:24;;;;;;;8.05;2.03;;;;;;;;;;5043194;28;20037;-80
2021/12/28 03:30:52;;;;;;;6.70;1.63;;;;;;;;;;5042148;28;20147;-80
2021/12/28 03:33:19;;;;;;;8.18;1.88;;;;;;;;;;5041081;28;20068;-80
2021/12/28 03:35:45;;;;;;;8.88;1.42;;;;;;;;;;5041083;28;20037;-80
2021/12/28 03:38:11;;;;;;;10.48;1.80;;;;;;;;;;5038279;28;20415;-79
2021/12/28 03:40:37;;;;;;;10.23;1.95;;;;;;;;;;5038960;28;20137;-80
2021/12/28 03:43:02;;;;;;;8.50;1.88;;;;;;;;;;5041897;28;20535;-80
2021/12/28 03:45:28;;;;;;;8.43;1.70;;;;;;;;;;5045099;28;20028;-80
2021/12/28 03:47:53;;;;;;;4.78;1.65;;;;;;;;;;5048727;28;20050;-80
2021/12/28 03:50:25;;;;;;;11.85;2.03;;;;;;;;;;5030908;28;20033;-80
2021/12/28 03:52:54;;;;;;;7.75;2.05;;;;;;;;;;5043381;28;20059;-80
2021/12/28 03:55:20;;;;;;;6.72;1.90;;;;;;;;;;5036141;28;20394;-80
2021/12/28 03:57:46;;;;;;;3.40;1.45;;;;;;;;;;5061464;28;20012;-80
2021/12/28 04:00:13;;;;;;;7.75;1.92;;;;;;;;;;5060042;28;20044;-80
2021/12/28 04:02:39;;;;;;;6.60;1.45;;;;;;;;;;5060658;28;20033;-80
2021/12/28 04:05:05;;;;;;;5.38;1.33;;;;;;;;;;5062798;28;20040;-80
2021/12/28 04:07:30;;;;;;;7.70;1.58;;;;;;;;;;5057452;28;20044;-79
2021/12/28 04:10:00;;;;;;;8.65;1.58;;;;;;;;;;5059759;28;20063;-80
2021/12/28 04:12:25;;;;;;;4.80;1.45;;;;;;;;;;5063317;28;20040;-79
2021/12/28 04:14:51;;;;;;;7.53;2.10;;;;;;;;;;5056302;28;20063;-79
2021/12/28 04:17:17;;;;;;;8.75;1.65;;;;;;;;;;5074331;28;20052;-80
2021/12/28 04:19:43;;;;;;;9.23;1.75;;;;;;;;;;5056403;28;20033;-80
2021/12/28 04:22:08;;;;;;;7.30;1.83;;;;;;;;;;5054647;28;20456;-80
2021/12/28 04:24:34;;;;;;;8.63;1.48;;;;;;;;;;5060742;28;20041;-79
2021/12/28 04:26:59;;;;;;;6.05;1.60;;;;;;;;;;5058705;28;20040;-79
2021/12/28 04:29:25;;;;;;;7.50;1.40;;;;;;;;;;5058220;28;20045;-79
2021/12/28 04:31:50;;;;;;;4.68;1.05;;;;;;;;;;5062473;28;20037;-80
2021/12/28 04:34:16;;;;;;;5.05;1.05;;;;;;;;;;5053916;28;20025;-79
2021/12/28 04:36:41;;;;;;;2.05;1.15;;;;;;;;;;5069467;28;20031;-80
2021/12/28 04:39:07;;;;;;;6.00;1.40;;;;;;;;;;5065481;28;20041;-79
2021/12/28 04:41:34;;;;;;;4.47;1.50;;;;;;;;;;5062912;28;20044;-80
2021/12/28 04:44:01;;;;;;;6.25;0.90;;;;;;;;;;5062935;28;20398;-79
2021/12/28 04:46:27;;;;;;;6.25;1.35;;;;;;;;;;5061114;28;20037;-79
2021/12/28 04:48:52;;;;;;;6.13;1.20;;;;;;;;;;5051559;28;20041;-79
2021/12/28 04:51:18;;;;;;;5.95;1.42;;;;;;;;;;5045463;28;20029;-80
2021/12/28 04:53:43;;;;;;;6.07;1.30;;;;;;;;;;5039390;28;20063;-79
2021/12/28 04:56:09;;;;;;;3.67;1.05;;;;;;;;;;5038023;28;20111;-80
2021/12/28 04:58:34;;;;;;;3.15;1.20;;;;;;;;;;5027845;28;20036;-81
2021/12/28 05:01:00;;;;;;;5.50;1.40;;;;;;;;;;5044956;28;20116;-80
2021/12/28 05:03:25;;;;;;;2.22;1.00;;;;;;;;;;5025098;28;20568;-80
2021/12/28 05:05:53;;;;;;;5.03;1.10;;;;;;;;;;5043167;28;20129;-80
2021/12/28 05:08:20;;;;;;;8.25;1.88;;;;;;;;;;5041284;28;20579;-80
2021/12/28 05:10:46;;;;;;;4.55;1.25;;;;;;;;;;5042006;28;20514;-80
2021/12/28 05:13:12;;;;;;;4.63;1.48;;;;;;;;;;5052276;28;20029;-80
2021/12/28 05:15:38;;;;;;;1.58;1.10;;;;;;;;;;5029422;28;20029;-80
2021/12/28 05:18:05;;;;;;;1.30;0.90;;;;;;;;;;5047172;28;20041;-80
2021/12/28 05:20:30;;;;;;;3.60;1.00;;;;;;;;;;5039235;28;20083;-80
2021/12/28 05:22:56;;;;;;;2.92;0.98;;;;;;;;;;5036850;28;20041;-80
2021/12/28 05:25:21;;;;;;;1.52;1.00;;;;;;;;;;5032744;28;20033;-80
2021/12/28 05:27:47;;;;;;;5.57;1.20;;;;;;;;;;5028289;28;20017;-80
2021/12/28 05:30:13;;;;;;;2.33;1.10;;;;;;;;;;5001155;28;20410;-80
2021/12/28 05:32:38;;;;;;;2.70;1.05;;;;;;;;;;4995877;28;20168;-79
2021/12/28 05:35:06;;;;;;;1.95;0.90;;;;;;;;;;5016201;28;20038;-79
2021/12/28 05:37:32;;;;;;;4.10;1.23;;;;;;;;;;5012596;28;20228;-80
2021/12/28 05:39:57;;;;;;;2.78;1.02;;;;;;;;;;5007590;28;20120;-80
2021/12/28 05:42:23;;;;;;;2.80;0.98;;;;;;;;;;5028541;28;20049;-81
2021/12/28 05:44:49;;;;;;;4.93;1.10;;;;;;;;;;5023183;28;20042;-80
2021/12/28 05:47:14;;;;;;;3.65;1.23;;;;;;;;;;5031520;28;20413;-80
2021/12/28 05:49:39;;;;;;;4.85;1.10;;;;;;;;;;5045582;28;20116;-79
2021/12/28 05:52:06;;;;;;;4.47;1.38;;;;;;;;;;5019274;28;20033;-80
2021/12/28 05:54:31;;;;;;;2.88;1.30;;;;;;;;;;5047981;28;20501;-80
2021/12/28 05:56:56;;;;;;;2.80;1.10;;;;;;;;;;5039146;28;20039;-80
2021/12/28 05:59:22;;;;;;;5.85;1.17;;;;;;;;;;5046727;28;20525;-81
2021/12/28 06:01:49;;;;;;;4.03;1.35;;;;;;;;;;5045088;28;20045;-80
2021/12/28 06:04:14;;;;;;;4.70;1.52;;;;;;;;;;5047507;28;20090;-80
2021/12/28 06:06:40;;;;;;;2.33;1.52;;;;;;;;;;5017025;28;20430;-80
2021/12/28 06:09:05;;;;;;;2.60;1.48;;;;;;;;;;5038952;28;20045;-81
2021/12/28 06:11:30;;;;;;;3.17;1.40;;;;;;;;;;5036224;28;20041;-80
2021/12/28 06:13:56;;;;;;;2.85;1.40;;;;;;;;;;5049448;28;20095;-80
2021/12/28 06:16:21;;;;;;;2.15;1.20;;;;;;;;;;5037202;28;20072;-80
2021/12/28 06:18:46;;;;;;;3.00;1.40;;;;;;;;;;5043498;28;20047;-80
2021/12/28 06:21:12;;;;;;;1.63;1.30;;;;;;;;;;5037786;28;20045;-80
2021/12/28 06:23:37;;;;;;;4.32;1.70;;;;;;;;;;5029467;28;20048;-78
2021/12/28 06:26:03;;;;;;;4.05;1.38;;;;;;;;;;5039744;28;20495;-80
2021/12/28 06:28:28;;;;;;;2.45;1.45;;;;;;;;;;5018006;28;20045;-80
2021/12/28 06:30:54;;;;;;;6.68;3.15;;;;;;;;;;5018104;28;20031;-80
2021/12/28 06:33:20;;;;;;;3.22;1.40;;;;;;;;;;5038265;28;20037;-80
2021/12/28 06:35:46;;;;;;;3.80;1.60;;;;;;;;;;5040892;28;20120;-80
2021/12/28 06:38:12;;;;;;;4.45;2.50;;;;;;;;;;5044314;28;20128;-80
2021/12/28 06:40:37;;;;;;;5.03;1.70;;;;;;;;;;5045978;28;20045;-79
2021/12/28 06:43:03;;;;;;;2.05;1.50;;;;;;;;;;5038019;28;20079;-79
2021/12/28 06:45:28;;;;;;;4.53;1.50;;;;;;;;;;5031264;28;20051;-80
2021/12/28 06:47:54;;;;;;;2.58;1.67;;;;;;;;;;5049686;28;20048;-80
2021/12/28 06:50:20;;;;;;;2.70;1.60;;;;;;;;;;5064497;28;20079;-80
2021/12/28 06:52:45;;;;;;;3.47;1.92;;;;;;;;;;5054113;28;20120;-80
2021/12/28 06:55:11;;;;;;;3.92;1.52;;;;;;;;;;5048941;28;20036;-80
2021/12/28 06:57:37;;;;;;;2.05;1.33;;;;;;;;;;5052011;28;20035;-80
2021/12/28 07:00:05;;;;;;;4.50;2.40;;;;;;;;;;5065223;28;20041;-80
2021/12/28 07:02:31;;;;;;;3.85;1.83;;;;;;;;;;5076491;28;20044;-78
2021/12/28 07:04:56;;;;;;;2.25;1.30;;;;;;;;;;5047248;28;20049;-79
2021/12/28 07:07:22;;;;;;;3.58;1.40;;;;;;;;;;5031800;28;20041;-79
2021/12/28 07:09:47;;;;;;;2.50;1.33;;;;;;;;;;5035533;28;20021;-80
2021/12/28 07:12:12;;;;;;;2.55;1.30;;;;;;;;;;5051627;28;20094;-80
2021/12/28 07:14:38;;;;;;;2.00;1.30;;;;;;;;;;5056176;28;20032;-79
2021/12/28 07:17:04;;;;;;;3.22;2.17;;;;;;;;;;5049272;28;20048;-79
2021/12/28 07:19:29;;;;;;;1.60;1.05;;;;;;;;;;5050836;28;20057;-78
2021/12/28 07:21:55;;;;;;;2.03;1.25;;;;;;;;;;5052887;28;20111;-79
2021/12/28 07:24:20;;;;;;;2.58;1.30;;;;;;;;;;5063441;28;20048;-78
2021/12/28 07:26:46;;;;;;;2.42;1.60;;;;;;;;;;5044919;28;20124;-77
2021/12/28 07:29:12;;;;;;;3.05;1.30;;;;;;;;;;5038233;28;20041;-80
2021/12/28 07:31:38;;;;;;;2.20;1.20;;;;;;;;;;5046163;28;20037;-79
2021/12/28 07:34:03;;;;;;;3.50;1.40;;;;;;;;;;5047253;28;20044;-78
2021/12/28 07:36:29;;;;;;;3.83;1.40;;;;;;;;;;5045797;28;20086;-79
2021/12/28 07:38:54;;;;;;;7.35;1.40;;;;;;;;;;5055645;28;20037;-79
2021/12/28 07:41:21;;;;;;;2.50;1.30;;;;;;;;;;5042062;28;20094;-79
2021/12/28 07:43:47;;;;;;;4.07;1.67;;;;;;;;;;5043363;28;20064;-78
2021/12/28 07:46:13;;;;;;;5.22;1.95;;;;;;;;;;5037643;28;20557;-78
2021/12/28 07:48:38;;;;;;;3.97;1.67;;;;;;;;;;5037172;28;20725;-77
2021/12/28 07:51:04;;;;;;;3.08;1.65;;;;;;;;;;5047871;28;20494;-78
2021/12/28 07:53:29;;;;;;;3.83;2.03;;;;;;;;;;5046916;28;20059;-78
2021/12/28 07:55:57;;;;;;;5.10;1.85;;;;;;;;;;5047390;28;20136;-78
2021/12/28 07:58:23;;;;;;;5.68;2.58;;;;;;;;;;5049662;28;20040;-78
2021/12/28 08:00:48;;;;;;;4.90;2.00;;;;;;;;;;5062574;28;20025;-78
2021/12/28 08:03:14;;;;;;;4.07;2.40;;;;;;;;;;5031048;28;20385;-78
2021/12/28 08:05:39;;;;;;;3.97;2.20;;;;;;;;;;5035272;28;20067;-78
2021/12/28 08:08:05;;;;;;;3.53;2.00;;;;;;;;;;5034593;28;20156;-78
2021/12/28 08:10:30;;;;;;;5.00;2.45;;;;;;;;;;5041044;28;20043;-78
2021/12/28 08:12:56;;;;;;;3.78;2.15;;;;;;;;;;5060622;28;20025;-76
2021/12/28 08:15:24;;;;;;;4.25;2.20;;;;;;;;;;5059638;28;20118;-76
2021/12/28 08:17:50;;;;;;;3.95;2.42;;;;;;;;;;5057584;28;20044;-76
2021/12/28 08:20:17;;;;;;;6.40;2.50;;;;;;;;;;5060665;28;20037;-76
2021/12/28 08:22:43;;;;;;;6.53;2.72;;;;;;;;;;5063608;28;20537;-76
2021/12/28 08:25:11;;;;;;;5.20;3.10;;;;;;;;;;5058705;28;20141;-76
2021/12/28 08:27:37;;;;;;;6.18;3.00;;;;;;;;;;5070148;28;20040;-76
2021/12/28 08:30:04;;;;;;;5.00;2.85;;;;;;;;;;5061156;28;20049;-76
2021/12/28 08:32:29;;;;;;;7.85;3.22;;;;;;;;;;5050425;28;20469;-76
2021/12/28 08:34:54;;;;;;;5.00;2.78;;;;;;;;;;5047351;28;20045;-78
2021/12/28 08:37:20;;;;;;;9.18;3.20;;;;;;;;;;5049646;28;20101;-77
2021/12/28 08:39:45;;;;;;;4.93;3.00;;;;;;;;;;5049598;28;20064;-79
2021/12/28 08:42:11;;;;;;;3.90;2.63;;;;;;;;;;5044356;28;20041;-79
2021/12/28 08:44:36;;;;;;;4.57;2.65;;;;;;;;;;5042952;28;20033;-78
2021/12/28 08:47:02;;;;;;;5.80;2.78;;;;;;;;;;5039583;28;20048;-78
2021/12/28 08:49:27;;;;;;;9.00;3.17;;;;;;;;;;5044467;28;20049;-78
2021/12/28 08:51:53;;;;;;;11.88;3.10;;;;;;;;;;5034225;28;20040;-78
2021/12/28 08:54:19;;;;;;;5.70;2.60;;;;;;;;;;5050361;28;20516;-78
2021/12/28 08:56:46;;;;;;;3.35;2.05;;;;;;;;;;5041936;28;20171;-78
2021/12/28 08:59:13;;;;;;;3.00;1.80;;;;;;;;;;5060233;28;20113;-78
2021/12/28 09:01:38;;;;;;;5.93;1.45;;;;;;;;;;5075102;28;20108;-79
2021/12/28 09:04:04;;;;;;;3.55;1.67;;;;;;;;;;5052314;28;20806;-78
2021/12/28 09:06:29;;;;;;;3.58;1.75;;;;;;;;;;5033692;28;20029;-78
2021/12/28 09:08:55;;;;;;;4.35;1.58;;;;;;;;;;5032569;28;20034;-78
2021/12/28 09:11:20;;;;;;;2.83;1.40;;;;;;;;;;5035385;28;20042;-78
2021/12/28 09:13:46;;;;;;;2.45;1.60;;;;;;;;;;5039070;28;20052;-77
2021/12/28 09:16:12;;;;;;;2.40;1.50;;;;;;;;;;5038944;28;20037;-79
2021/12/28 09:18:37;;;;;;;2.85;1.52;;;;;;;;;;5047703;28;20809;-79
2021/12/28 09:21:02;;;;;;;5.05;1.65;;;;;;;;;;5041534;28;20038;-78
2021/12/28 09:23:29;;;;;;;4.05;1.92;;;;;;;;;;5031968;28;20117;-78
2021/12/28 09:25:54;;;;;;;3.72;1.40;;;;;;;;;;5041623;28;20052;-77
2021/12/28 09:28:20;;;;;;;4.22;1.38;;;;;;;;;;5043479;28;20037;-78
2021/12/28 09:30:46;;;;;;;2.80;1.27;;;;;;;;;;5064663;28;20521;-78
2021/12/28 09:33:11;;;;;;;3.10;1.25;;;;;;;;;;5050551;28;20040;-78
2021/12/28 09:35:37;;;;;;;2.75;1.20;;;;;;;;;;5049599;28;20068;-78
2021/12/28 09:38:03;;;;;;;3.08;1.23;;;;;;;;;;5049971;28;20417;-78
2021/12/28 09:40:30;;;;;;;3.65;1.30;;;;;;;;;;5049841;28;20033;-78
2021/12/28 09:42:56;;;;;;;3.03;1.35;;;;;;;;;;5040781;28;20057;-77
2021/12/28 09:45:22;;;;;;;1.80;0.98;;;;;;;;;;5038226;28;20071;-76
2021/12/28 09:47:48;;;;;;;1.60;0.88;;;;;;;;;;5026064;28;20154;-77
2021/12/28 09:50:15;;;;;;;3.10;0.93;;;;;;;;;;5031647;28;20075;-78
2021/12/28 09:52:43;;;;;;;1.90;1.13;;;;;;;;;;5044317;28;20040;-78
2021/12/28 09:55:09;;;;;;;2.88;1.30;;;;;;;;;;5047004;28;20025;-78
2021/12/28 09:57:35;;;;;;;4.88;1.30;;;;;;;;;;5046352;28;20043;-78
2021/12/28 10:00:01;;;;;;;7.18;2.00;;;;;;;;;;5042305;28;20670;-78
2021/12/28 10:02:26;;;;;;;8.38;1.95;;;;;;;;;;5016380;28;20125;-78
2021/12/28 10:05:04;;;;;;;11.98;2.58;;;;;;;;;;5036153;28;20550;-78
2021/12/28 10:07:32;;;;;;;9.35;1.92;;;;;;;;;;5036073;28;20037;-79
2021/12/28 10:09:58;;;;;;;12.73;2.63;;;;;;;;;;5045189;28;20509;-79
2021/12/28 10:12:33;;;;;;;14.05;2.25;;;;;;;;;;5031762;28;20576;-78
2021/12/28 10:15:01;;;;;;;16.42;3.25;;;;;;;;;;5045854;28;20056;-78
2021/12/28 10:17:29;;;;;;;15.48;2.90;;;;;;;;;;5041409;28;20037;-77
2021/12/28 10:19:55;;;;;;;21.80;3.78;;;;;;;;;;5030941;28;20047;-78
2021/12/28 10:22:35;;;;;;;18.23;3.25;;;;;;;;;;5037853;28;20044;-78
2021/12/28 10:25:12;;;;;;;17.73;3.35;;;;;;;;;;5030278;28;20137;-78
2021/12/28 10:27:40;;;;;;;13.45;2.65;;;;;;;;;;5032100;28;20021;-78
2021/12/28 10:30:21;;;;;;;21.65;3.30;;;;;;;;;;5045504;28;20032;-78
2021/12/28 10:32:49;;;;;;;27.25;3.30;;;;;;;;;;5039565;28;20032;-78
2021/12/28 10:35:18;;;;;;;21.58;3.42;;;;;;;;;;5037667;28;20049;-79
2021/12/28 10:37:47;;;;;;;21.08;4.18;;;;;;;;;;5040081;28;20052;-79
2021/12/28 10:40:19;;;;;;;26.10;3.42;;;;;;;;;;5026199;28;20045;-77
2021/12/28 10:42:51;;;;;;;23.38;3.25;;;;;;;;;;5037242;28;20021;-79
2021/12/28 10:45:29;;;;;;;19.70;3.47;;;;;;;;;;5033662;28;20060;-78
2021/12/28 10:47:55;;;;;;;24.48;3.28;;;;;;;;;;5050303;28;20044;-78
2021/12/28 10:50:23;;;;;;;18.08;3.45;;;;;;;;;;5063631;28;20033;-79
2021/12/28 10:52:52;;;;;;;27.08;4.18;;;;;;;;;;5059590;28;20049;-79
2021/12/28 10:55:24;;;;;;;37.08;4.43;;;;;;;;;;5047954;28;20045;-79
2021/12/28 10:57:50;;;;;;;20.85;4.40;;;;;;;;;;5051863;28;20421;-79
2021/12/28 11:00:41;;;;;;;33.78;4.72;;;;;;;;;;5064607;28;20064;-79
2021/12/28 11:03:30;;;;;;;37.00;5.38;;;;;;;;;;5049872;28;20036;-82
2021/12/28 11:05:57;;;;;;;34.92;5.13;;;;;;;;;;5061592;28;20508;-74
2021/12/28 11:08:25;;;;;;;29.63;4.35;;;;;;;;;;5059506;28;20037;-75
2021/12/28 11:10:57;;;;;;;29.50;4.97;;;;;;;;;;5057965;28;20059;-76
2021/12/28 11:13:28;;;;;;;32.08;5.80;;;;;;;;;;5057777;28;20697;-77
2021/12/28 11:15:54;;;;;;;20.85;5.07;;;;;;;;;;5060439;28;20541;-76
2021/12/28 11:18:30;;;;;;;29.58;4.53;;;;;;;;;;5061598;28;20037;-79
2021/12/28 11:20:58;;;;;;;27.52;4.80;;;;;;;;;;5043054;28;20044;-81
2021/12/28 11:23:26;;;;;;;28.60;5.30;;;;;;;;;;5037806;28;20149;-76
2021/12/28 11:26:23;;;;;;;26.20;3.92;;;;;;;;;;5042253;28;20040;-74
2021/12/28 11:28:56;;;;;;;20.70;3.42;;;;;;;;;;5029215;28;20529;-74
2021/12/28 11:31:25;;;;;;;16.47;3.33;;;;;;;;;;5045218;28;20040;-74
2021/12/28 11:33:55;;;;;;;11.38;2.58;;;;;;;;;;5047564;28;20028;-74
2021/12/28 11:36:23;;;;;;;18.40;2.88;;;;;;;;;;5062572;28;20041;-74
2021/12/28 11:38:50;;;;;;;16.10;2.55;;;;;;;;;;5049141;28;20037;-74
2021/12/28 11:41:16;;;;;;;16.90;3.10;;;;;;;;;;5042329;28;20044;-74
2021/12/28 11:43:43;;;;;;;18.25;3.47;;;;;;;;;;5044273;28;20032;-78
2021/12/28 11:46:09;;;;;;;16.70;3.80;;;;;;;;;;5049449;28;20024;-75
2021/12/28 11:48:36;;;;;;;16.55;3.75;;;;;;;;;;5046050;28;20045;-76
2021/12/28 11:51:03;;;;;;;24.30;3.55;;;;;;;;;;5039090;28;20041;-78
2021/12/28 11:53:29;;;;;;;23.23;3.33;;;;;;;;;;5043730;28;20033;-79
2021/12/28 11:55:57;;;;;;;27.48;3.90;;;;;;;;;;5054220;28;20547;-79
2021/12/28 11:58:51;;;;;;;23.55;3.50;;;;;;;;;;5061705;28;20044;-78
2021/12/28 12:01:39;;;;;;;24.25;2.95;;;;;;;;;;5047243;28;20032;-75
2021/12/28 12:04:33;;;;;;;34.63;4.50;;;;;;;;;;5062760;28;20567;-76
2021/12/28 12:07:09;;;;;;;15.77;2.85;;;;;;;;;;5061661;28;20037;-74
2021/12/28 12:09:55;;;;;;;22.33;3.15;;;;;;;;;;5057497;28;20024;-76
2021/12/28 12:12:27;;;;;;;32.95;5.40;;;;;;;;;;5059376;28;20037;-77
2021/12/28 12:14:58;;;;;;;32.40;4.00;;;;;;;;;;5051570;28;20086;-76
2021/12/28 12:17:45;;;;;;;22.60;3.88;;;;;;;;;;5057366;28;20072;-74
2021/12/28 12:20:13;;;;;;;25.10;4.10;;;;;;;;;;5063385;28;20051;-75
2021/12/28 12:23:03;;;;;;;24.40;3.85;;;;;;;;;;5045600;28;21013;-77
2021/12/28 12:25:48;;;;;;;24.80;5.20;;;;;;;;;;5031626;28;20037;-72
2021/12/28 12:28:15;;;;;;;31.00;4.85;;;;;;;;;;5029649;28;20029;-75
2021/12/28 12:30:44;;;;;;;30.42;4.65;;;;;;;;;;5024287;28;20053;-74
2021/12/28 12:33:12;;;;;;;25.20;3.80;;;;;;;;;;5060830;28;20165;-77
2021/12/28 12:35:39;;;;;;;29.92;5.45;;;;;;;;;;5044675;28;20565;-75
2021/12/28 12:38:24;;;;;;;26.27;4.03;;;;;;;;;;5054169;28;20060;-78
2021/12/28 12:41:05;;;;;;;22.55;3.78;;;;;;;;;;5055530;28;20036;-75
2021/12/28 12:43:39;;;;;;;25.52;3.60;;;;;;;;;;5061616;28;20037;-79
2021/12/28 12:46:05;;;;;;;23.40;3.55;;;;;;;;;;5044293;28;20057;-77
2021/12/28 12:48:36;;;;;;;20.95;3.97;;;;;;;;;;5045065;28;20675;-76
2021/12/28 12:51:23;;;;;;;33.80;5.05;;;;;;;;;;5043537;28;20514;-76
2021/12/28 12:53:50;;;;;;;24.15;4.60;;;;;;;;;;5044636;28;20041;-78
2021/12/28 12:56:24;;;;;;;30.55;3.78;;;;;;;;;;5037875;28;20082;-79
2021/12/28 12:58:52;;;;;;;23.20;3.92;;;;;;;;;;5035968;28;20037;-75
2021/12/28 13:01:27;;;;;;;29.17;3.80;;;;;;;;;;5034056;28;20557;-75
2021/12/28 13:03:59;;;;;;;27.35;3.38;;;;;;;;;;5038692;28;20139;-75
2021/12/28 13:06:39;;;;;;;29.20;4.03;;;;;;;;;;5034415;28;20031;-75
2021/12/28 13:09:15;;;;;;;28.27;3.35;;;;;;;;;;5036711;28;20033;-71
2021/12/28 13:11:43;;;;;;;21.75;3.42;;;;;;;;;;5036976;28;20044;-73
2021/12/28 13:14:11;;;;;;;23.13;4.13;;;;;;;;;;5035740;28;20123;-74
2021/12/28 13:16:36;;;;;;;19.67;3.83;;;;;;;;;;5039149;28;20132;-74
2021/12/28 13:19:10;;;;;;;20.95;3.85;;;;;;;;;;5037168;28;20116;-73
2021/12/28 13:21:37;;;;;;;23.85;3.75;;;;;;;;;;5039676;28;20053;-74
2021/12/28 13:24:12;;;;;;;28.25;4.43;;;;;;;;;;5039425;28;20017;-74
2021/12/28 13:26:57;;;;;;;24.88;4.47;;;;;;;;;;5033062;28;20036;-74
2021/12/28 13:29:29;;;;;;;27.23;4.25;;;;;;;;;;5040285;28;20033;-73
2021/12/28 13:32:16;;;;;;;22.00;3.15;;;;;;;;;;5038633;28;20044;-73
2021/12/28 13:35:07;;;;;;;19.80;3.63;;;;;;;;;;5036081;28;20090;-74
2021/12/28 13:37:53;;;;;;;23.67;3.95;;;;;;;;;;5040035;28;20041;-74
2021/12/28 13:40:29;;;;;;;18.08;3.17;;;;;;;;;;5038107;28;20120;-74
2021/12/28 13:42:58;;;;;;;17.98;2.90;;;;;;;;;;5035976;28;20124;-73
2021/12/28 13:45:40;;;;;;;21.40;3.80;;;;;;;;;;5039010;28;20421;-73
2021/12/28 13:48:23;;;;;;;11.60;2.28;;;;;;;;;;5036243;28;20053;-73
2021/12/28 13:50:56;;;;;;;15.63;2.83;;;;;;;;;;5038860;28;20037;-74
2021/12/28 13:53:24;;;;;;;15.73;2.85;;;;;;;;;;5040236;28;20086;-73
2021/12/28 13:55:54;;;;;;;15.85;2.15;;;;;;;;;;5039664;28;20049;-74
2021/12/28 13:58:29;;;;;;;18.83;2.67;;;;;;;;;;5037634;28;20029;-74
2021/12/28 14:00:58;;;;;;;15.73;2.45;;;;;;;;;;5035116;28;20033;-74
2021/12/28 14:03:24;;;;;;;13.70;2.95;;;;;;;;;;5039790;28;20039;-73
2021/12/28 14:05:50;;;;;;;19.00;3.33;;;;;;;;;;5036734;28;20036;-73
2021/12/28 14:08:17;;;;;;;27.95;3.88;;;;;;;;;;5041971;28;20112;-73
2021/12/28 14:10:44;;;;;;;24.60;3.50;;;;;;;;;;5036775;28;20151;-73
2021/12/28 14:13:15;;;;;;;16.70;3.13;;;;;;;;;;5038052;28;20033;-74
2021/12/28 14:16:01;;;;;;;22.27;3.90;;;;;;;;;;5036333;28;20506;-73
2021/12/28 14:18:39;;;;;;;21.45;3.53;;;;;;;;;;5041536;28;20097;-74
2021/12/28 14:21:20;;;;;;;15.00;2.22;;;;;;;;;;5032187;28;20570;-73
2021/12/28 14:23:59;;;;;;;21.52;4.03;;;;;;;;;;5038811;28;20040;-74
2021/12/28 14:26:31;;;;;;;24.00;3.58;;;;;;;;;;5037938;28;20518;-74
2021/12/28 14:29:00;;;;;;;25.15;4.25;;;;;;;;;;5040555;28;20506;-73
2021/12/28 14:31:33;;;;;;;19.95;2.95;;;;;;;;;;5038866;28;20132;-74
2021/12/28 14:33:59;;;;;;;31.65;4.00;;;;;;;;;;5038515;28;20639;-74
2021/12/28 14:36:31;;;;;;;26.23;4.18;;;;;;;;;;5042156;28;20486;-74
2021/12/28 14:39:12;;;;;;;27.92;4.13;;;;;;;;;;5040672;28;20067;-74
2021/12/28 14:41:38;;;;;;;17.50;2.83;;;;;;;;;;5038681;28;20087;-73
2021/12/28 14:44:13;;;;;;;25.63;4.68;;;;;;;;;;5039406;28;20049;-74
2021/12/28 14:46:39;;;;;;;22.55;3.13;;;;;;;;;;5040519;28;20033;-74
2021/12/28 14:49:37;;;;;;;20.55;3.13;;;;;;;;;;5057150;28;20048;-74